Wybark, Oklahoma
Current Conditions -  °F | °C
As of 7:53 PM on Thursday 20 Nov 2014 (Local Time) from KMKO Reporting Station
Clear Clear  
Wind Chill: 45°   Ceiling: Unl
Heat Index: 45°   Visibility: 10mi
Dew Point: 33°   Wind: 3mph
Humidity: 63%   Direction: 90°E
Pressure: 30.12"   Gusts: NA
Location:  35.6818°N, 95.3578°W
Report Text: KMKO 210153Z AUTO 09003KT 10SM CLR 07/01 A3012 RMK AO2 SLP201 T00720006
Loading
Personal Weather Stations






























Interactive Weather Map New forecast layout! Learn more

10-Day Weather Forecast

Advertisements
Track Severe Weather on mobile